LGMT/MJT METAR and TAF weather

Enter ICAO airport designator
Station Type Date Time Source
LGMT METAR 2022/07/01 00:50 UTC NOAA

LGMT 010050Z VRB03KT CAVOK 22/17 Q1011


Station Type Date Time Source
LGMT Decoded METAR 2022/07/01 00:50 UTC NOAA

Mytilini Airport , Greece (LGMT) 39-04N 026-36E 5M
Jun 30, 2022 - 08:50 PM EDT / 2022.07.01 0050 UTC
Wind: Variable at 3 MPH (3 KT):0
Visibility: greater than 7 mile(s):0
Temperature: 71 F (22 C)
Dew Point: 62 F (17 C)
Relative Humidity: 73%
Pressure (altimeter): 29.85 in. Hg (1011 hPa)
ob: LGMT 010050Z VRB03KT CAVOK 22/17 Q1011
cycle: 1

Station Type Date Time Source
LGMT TAF 2012/09/21 03:06 UTC NOAA

TAF LGMT 210200Z 2103/2115 VRB05KT 9999 SCT020
BECMG 2103/2105 30015KT PROB30
TEMPO 2103/2106 7000 RA SCT018 BKN030
BECMG 2107/2109 29012KT

Example: see airport list